Terminal Aerodrome Forecast
Issued by NWS Shreveport, LA

Home | Current Version | Previous Version | Text Only | Print | Product List | Glossary On
Versions: 1 2 3 4 5 6 7 8 9 10 11 12 13 14 15 16 17
000
FTUS44 KSHV 031600 CCA
TAFTXK
TAF COR
KTXK 031618Z 0316/0412 18003KT 1/4SM FG OVC002
      TEMPO 0316/0318 3SM BR OVC006
     FM031800 20008KT P6SM BKN020
     FM040000 16006KT P6SM VCTS BKN025CB
     FM040700 19004KT 5SM -RA VCTS BKN009CB=

USA.gov is the U.S. government's official web portal to all federal, state and local government web resources and services.